Time;durP1;ratioP1;P1;durP2;ratioP2;P2;SDS_P1;SDS_P2;PMS_P1;PMS_P2;Temp;Humidity;BMP_temperature;BMP_pressure;BME280_temperature;BME280_humidity;BME280_pressure;Samples;Min_cycle;Max_cycle;Signal;HPM_P1;HPM_P2
2022/02/22 00:02:02;;;;;;;;;;;;;;;;;;5065775;28;19972;-80
2022/02/22 00:04:33;;;;;;;;;;;;;;;;;;5065869;28;19962;-82
2022/02/22 00:06:59;;;;;;;;;;;;;;;;;;5064217;28;19981;-78
2022/02/22 00:09:25;;;;;;;;;;;;;;;;;;5067408;28;20394;-80
2022/02/22 00:11:51;;;;;;;;;;;;;;;;;;5066723;28;19952;-78
2022/02/22 00:14:17;;;;;;;;;;;;;;;;;;5068542;28;20408;-78
2022/02/22 00:16:44;;;;;;;;;;;;;;;;;;5065283;28;20368;-79
2022/02/22 00:19:10;;;;;;;;;;;;;;;;;;5046944;28;20008;-79
2022/02/22 00:21:36;;;;;;;;;;;;;;;;;;5063378;28;20035;-82
2022/02/22 00:24:02;;;;;;;;;;;;;;;;;;5065599;28;19975;-82
2022/02/22 00:26:28;;;;;;;;;;;;;;;;;;5065176;28;19950;-82
2022/02/22 00:28:55;;;;;;;;;;;;;;;;;;5067301;28;19956;-81
2022/02/22 00:31:22;;;;;;;;;;;;;;;;;;5061122;28;19963;-82
2022/02/22 00:33:48;;;;;;;;;;;;;;;;;;5065717;28;19947;-80
2022/02/22 00:36:14;;;;;;;;;;;;;;;;;;5064594;28;19955;-83
2022/02/22 00:38:42;;;;;;;;;;;;;;;;;;5067368;28;19978;-82
2022/02/22 00:41:08;;;;;;;;;;;;;;;;;;5065279;28;20065;-82
2022/02/22 00:43:35;;;;;;;;;;;;;;;;;;5068858;28;19960;-81
2022/02/22 00:46:01;;;;;;;;;;;;;;;;;;5067910;28;19963;-82
2022/02/22 00:48:27;;;;;;;;;;;;;;;;;;5067709;28;20012;-82
2022/02/22 00:50:53;;;;;;;;;;;;;;;;;;5067532;28;19960;-80
2022/02/22 00:53:22;;;;;;;;;;;;;;;;;;5066869;28;19959;-82
2022/02/22 00:55:48;;;;;;;;;;;;;;;;;;5055381;28;20033;-78
2022/02/22 00:58:14;;;;;;;;;;;;;;;;;;5073381;28;19963;-83
2022/02/22 01:00:40;;;;;;;;;;;;;;;;;;5063537;28;20414;-82
2022/02/22 01:03:06;;;;;;;;;;;;;;;;;;5071090;28;19955;-83
2022/02/22 01:05:32;;;;;;;;;;;;;;;;;;5065345;28;20332;-83
2022/02/22 01:07:59;;;;;;;;;;;;;;;;;;5064565;28;19953;-82
2022/02/22 01:10:25;;;;;;;;;;;;;;;;;;5066500;28;19962;-81
2022/02/22 01:12:51;;;;;;;;;;;;;;;;;;5066433;28;21251;-81
2022/02/22 01:15:17;;;;;;;;;;;;;;;;;;5065563;28;19964;-79
2022/02/22 01:17:43;;;;;;;;;;;;;;;;;;5062662;28;19975;-79
2022/02/22 01:20:10;;;;;;;;;;;;;;;;;;5065980;28;19959;-81
2022/02/22 01:22:36;;;;;;;;;;;;;;;;;;5055426;28;19960;-81
2022/02/22 01:25:02;;;;;;;;;;;;;;;;;;5062144;28;19964;-80
2022/02/22 01:27:28;;;;;;;;;;;;;;;;;;5066298;28;19959;-81
2022/02/22 01:29:54;;;;;;;;;;;;;;;;;;5072571;28;19958;-79
2022/02/22 01:32:21;;;;;;;;;;;;;;;;;;5065697;28;19975;-80
2022/02/22 01:34:47;;;;;;;;;;;;;;;;;;5065734;28;19959;-79
2022/02/22 01:37:13;;;;;;;;;;;;;;;;;;5060874;28;20821;-80
2022/02/22 01:39:39;;;;;;;;;;;;;;;;;;5066971;28;19943;-81
2022/02/22 01:42:05;;;;;;;;;;;;;;;;;;5066027;28;19953;-81
2022/02/22 01:44:31;;;;;;;;;;;;;;;;;;5069158;28;20001;-78
2022/02/22 01:46:58;;;;;;;;;;;;;;;;;;5061270;28;19989;-80
2022/02/22 01:49:24;;;;;;;;;;;;;;;;;;5066792;28;19952;-79
2022/02/22 01:51:50;;;;;;;;;;;;;;;;;;5068456;28;19964;-79
2022/02/22 01:54:16;;;;;;;;;;;;;;;;;;5064933;28;20028;-79
2022/02/22 01:56:42;;;;;;;;;;;;;;;;;;5065878;28;19955;-79
2022/02/22 01:59:09;;;;;;;;;;;;;;;;;;5064639;28;19944;-78
2022/02/22 02:01:35;;;;;;;;;;;;;;;;;;5067540;28;19971;-80
2022/02/22 02:04:05;;;;;;;;;;;;;;;;;;5064198;28;20394;-80
2022/02/22 02:06:31;;;;;;;;;;;;;;;;;;5062997;28;19957;-80
2022/02/22 02:08:58;;;;;;;;;;;;;;;;;;5064882;28;20038;-80
2022/02/22 02:11:24;;;;;;;;;;;;;;;;;;5062954;28;19967;-80
2022/02/22 02:13:50;;;;;;;;;;;;;;;;;;5065030;28;19963;-81
2022/02/22 02:16:16;;;;;;;;;;;;;;;;;;5061156;28;19955;-79
2022/02/22 02:18:43;;;;;;;;;;;;;;;;;;5065569;28;19978;-76
2022/02/22 02:21:09;;;;;;;;;;;;;;;;;;5059284;28;19952;-78
2022/02/22 02:23:35;;;;;;;;;;;;;;;;;;5060584;28;20026;-78
2022/02/22 02:26:01;;;;;;;;;;;;;;;;;;5066984;28;19923;-77
2022/02/22 02:28:27;;;;;;;;;;;;;;;;;;5064702;28;19958;-76
2022/02/22 02:30:53;;;;;;;;;;;;;;;;;;5065144;28;20451;-77
2022/02/22 02:33:20;;;;;;;;;;;;;;;;;;5062520;28;19952;-77
2022/02/22 02:35:46;;;;;;;;;;;;;;;;;;5061887;28;19966;-77
2022/02/22 02:38:12;;;;;;;;;;;;;;;;;;5063954;28;19960;-77
2022/02/22 02:40:38;;;;;;;;;;;;;;;;;;5062966;28;20360;-77
2022/02/22 02:43:04;;;;;;;;;;;;;;;;;;5057306;28;20384;-77
2022/02/22 02:45:31;;;;;;;;;;;;;;;;;;5064131;28;19967;-77
2022/02/22 02:47:57;;;;;;;;;;;;;;;;;;5063214;28;19990;-77
2022/02/22 02:50:23;;;;;;;;;;;;;;;;;;5065481;28;19938;-77
2022/02/22 02:52:49;;;;;;;;;;;;;;;;;;5060824;28;19966;-77
2022/02/22 02:55:15;;;;;;;;;;;;;;;;;;5063092;28;19967;-77
2022/02/22 02:57:41;;;;;;;;;;;;;;;;;;5061608;28;20316;-77
2022/02/22 03:00:08;;;;;;;;;;;;;;;;;;5066675;28;19944;-76
2022/02/22 03:02:34;;;;;;;;;;;;;;;;;;5057129;28;20383;-76
2022/02/22 03:05:01;;;;;;;;;;;;;;;;;;5064712;28;19956;-78
2022/02/22 03:07:27;;;;;;;;;;;;;;;;;;5069082;28;19955;-78
2022/02/22 03:09:53;;;;;;;;;;;;;;;;;;5067404;28;19956;-77
2022/02/22 03:12:19;;;;;;;;;;;;;;;;;;5065425;28;20029;-78
2022/02/22 03:14:48;;;;;;;;;;;;;;;;;;5066632;28;19980;-78
2022/02/22 03:17:14;;;;;;;;;;;;;;;;;;5062768;28;20016;-79
2022/02/22 03:19:40;;;;;;;;;;;;;;;;;;5066430;28;20449;-80
2022/02/22 03:22:06;;;;;;;;;;;;;;;;;;5066805;28;19971;-80
2022/02/22 03:24:32;;;;;;;;;;;;;;;;;;5063579;28;19956;-79
2022/02/22 03:26:58;;;;;;;;;;;;;;;;;;5066903;28;19966;-78
2022/02/22 03:29:25;;;;;;;;;;;;;;;;;;5068990;28;20561;-78
2022/02/22 03:31:51;;;;;;;;;;;;;;;;;;5068668;28;19960;-79
2022/02/22 03:34:17;;;;;;;;;;;;;;;;;;5062471;28;19952;-79
2022/02/22 03:36:44;;;;;;;;;;;;;;;;;;5067708;28;19956;-79
2022/02/22 03:39:10;;;;;;;;;;;;;;;;;;5063015;28;19948;-78
2022/02/22 03:41:36;;;;;;;;;;;;;;;;;;5065624;28;19951;-80
2022/02/22 03:44:02;;;;;;;;;;;;;;;;;;5067296;28;19951;-80
2022/02/22 03:46:28;;;;;;;;;;;;;;;;;;5065219;28;19958;-81
2022/02/22 03:48:55;;;;;;;;;;;;;;;;;;5067770;28;20052;-81
2022/02/22 03:51:21;;;;;;;;;;;;;;;;;;5069005;28;19964;-80
2022/02/22 03:53:47;;;;;;;;;;;;;;;;;;5065508;28;19991;-82
2022/02/22 03:56:13;;;;;;;;;;;;;;;;;;5065317;28;19951;-80
2022/02/22 03:58:39;;;;;;;;;;;;;;;;;;5064966;28;19967;-79
2022/02/22 04:01:06;;;;;;;;;;;;;;;;;;5064792;28;19963;-79
2022/02/22 04:03:32;;;;;;;;;;;;;;;;;;5063315;28;19952;-80
2022/02/22 04:05:58;;;;;;;;;;;;;;;;;;5070152;28;19955;-79
2022/02/22 04:08:24;;;;;;;;;;;;;;;;;;5066930;28;19990;-79
2022/02/22 04:10:50;;;;;;;;;;;;;;;;;;5059977;28;19943;-79
2022/02/22 04:13:16;;;;;;;;;;;;;;;;;;5068959;28;19952;-82
2022/02/22 04:15:43;;;;;;;;;;;;;;;;;;5066535;28;19956;-83
2022/02/22 04:18:09;;;;;;;;;;;;;;;;;;5066800;28;19970;-82
2022/02/22 04:20:35;;;;;;;;;;;;;;;;;;5070055;28;20356;-82
2022/02/22 04:23:01;;;;;;;;;;;;;;;;;;5061935;28;20423;-81
2022/02/22 04:25:27;;;;;;;;;;;;;;;;;;5067643;28;19956;-81
2022/02/22 04:27:54;;;;;;;;;;;;;;;;;;5068336;28;20435;-80
2022/02/22 04:30:20;;;;;;;;;;;;;;;;;;5071872;28;19916;-81
2022/02/22 04:32:46;;;;;;;;;;;;;;;;;;5066101;28;19964;-79
2022/02/22 04:35:12;;;;;;;;;;;;;;;;;;5065080;28;20647;-79
2022/02/22 04:37:38;;;;;;;;;;;;;;;;;;5067559;28;19955;-78
2022/02/22 04:40:05;;;;;;;;;;;;;;;;;;5064384;28;19952;-78
2022/02/22 04:42:31;;;;;;;;;;;;;;;;;;5059982;28;19956;-78
2022/02/22 04:44:57;;;;;;;;;;;;;;;;;;5065481;28;19963;-78
2022/02/22 04:47:23;;;;;;;;;;;;;;;;;;5068029;28;19944;-78
2022/02/22 04:49:49;;;;;;;;;;;;;;;;;;5064744;28;20439;-76
2022/02/22 04:52:16;;;;;;;;;;;;;;;;;;5064719;27;20405;-77
2022/02/22 04:54:42;;;;;;;;;;;;;;;;;;5062262;28;19967;-77
2022/02/22 04:57:08;;;;;;;;;;;;;;;;;;5066024;28;20013;-77
2022/02/22 04:59:34;;;;;;;;;;;;;;;;;;5071129;28;19956;-79
2022/02/22 05:02:01;;;;;;;;;;;;;;;;;;5061834;28;19956;-79
2022/02/22 05:04:27;;;;;;;;;;;;;;;;;;5066516;28;20418;-78
2022/02/22 05:06:53;;;;;;;;;;;;;;;;;;5070051;28;19959;-78
2022/02/22 05:09:19;;;;;;;;;;;;;;;;;;5065097;28;19952;-78
2022/02/22 05:11:45;;;;;;;;;;;;;;;;;;5063337;28;19968;-79
2022/02/22 05:14:12;;;;;;;;;;;;;;;;;;5071423;28;19943;-79
2022/02/22 05:16:40;;;;;;;;;;;;;;;;;;5065267;28;19956;-79
2022/02/22 05:19:07;;;;;;;;;;;;;;;;;;5064313;28;19964;-79
2022/02/22 05:21:34;;;;;;;;;;;;;;;;;;5065021;28;19948;-79
2022/02/22 05:24:00;;;;;;;;;;;;;;;;;;5059993;28;19956;-78
2022/02/22 05:26:27;;;;;;;;;;;;;;;;;;5064980;28;19981;-80
2022/02/22 05:28:53;;;;;;;;;;;;;;;;;;5065536;28;20415;-80
2022/02/22 05:31:19;;;;;;;;;;;;;;;;;;5064502;28;19967;-80
2022/02/22 05:33:45;;;;;;;;;;;;;;;;;;5064423;28;19989;-79
2022/02/22 05:36:11;;;;;;;;;;;;;;;;;;5065619;28;19955;-80
2022/02/22 05:38:39;;;;;;;;;;;;;;;;;;5062774;28;20027;-80
2022/02/22 05:41:05;;;;;;;;;;;;;;;;;;5073017;28;20390;-77
2022/02/22 05:43:32;;;;;;;;;;;;;;;;;;5061855;28;19959;-78
2022/02/22 05:45:58;;;;;;;;;;;;;;;;;;5064342;28;19951;-79
2022/02/22 05:48:24;;;;;;;;;;;;;;;;;;5062572;28;19956;-78
2022/02/22 05:50:50;;;;;;;;;;;;;;;;;;5064792;28;19913;-77
2022/02/22 05:53:16;;;;;;;;;;;;;;;;;;5065144;28;20410;-78
2022/02/22 05:55:43;;;;;;;;;;;;;;;;;;5061983;28;19978;-78
2022/02/22 05:58:09;;;;;;;;;;;;;;;;;;5065850;28;19968;-77
2022/02/22 06:00:35;;;;;;;;;;;;;;;;;;5065310;28;20281;-78
2022/02/22 06:03:01;;;;;;;;;;;;;;;;;;5070408;28;19962;-79
2022/02/22 06:05:27;;;;;;;;;;;;;;;;;;5065639;28;19967;-78
2022/02/22 06:07:53;;;;;;;;;;;;;;;;;;5069284;28;20480;-77
2022/02/22 06:10:20;;;;;;;;;;;;;;;;;;5069696;28;20018;-79
2022/02/22 06:12:48;;;;;;;;;;;;;;;;;;5065253;28;19980;-78
2022/02/22 06:15:14;;;;;;;;;;;;;;;;;;5074052;28;20147;-80
2022/02/22 06:17:40;;;;;;;;;;;;;;;;;;5066398;28;20448;-79
2022/02/22 06:20:06;;;;;;;;;;;;;;;;;;5061777;28;19968;-78
2022/02/22 06:22:33;;;;;;;;;;;;;;;;;;5067590;28;19975;-79
2022/02/22 06:24:59;;;;;;;;;;;;;;;;;;5063337;28;20540;-79
2022/02/22 06:27:25;;;;;;;;;;;;;;;;;;5063176;28;19962;-79
2022/02/22 06:29:51;;;;;;;;;;;;;;;;;;5062562;28;20296;-78
2022/02/22 06:32:17;;;;;;;;;;;;;;;;;;5060884;28;20014;-76
2022/02/22 06:34:43;;;;;;;;;;;;;;;;;;5062219;28;19960;-79
2022/02/22 06:37:10;;;;;;;;;;;;;;;;;;5065279;28;19964;-81
2022/02/22 06:39:37;;;;;;;;;;;;;;;;;;5066700;28;19956;-80
2022/02/22 06:42:03;;;;;;;;;;;;;;;;;;5057150;28;19968;-81
2022/02/22 06:44:29;;;;;;;;;;;;;;;;;;5046994;28;19952;-79
2022/02/22 06:46:55;;;;;;;;;;;;;;;;;;5044098;28;19947;-83
2022/02/22 06:49:21;;;;;;;;;;;;;;;;;;5049088;28;19944;-83
2022/02/22 06:51:47;;;;;;;;;;;;;;;;;;5064683;28;19924;-83
2022/02/22 06:54:14;;;;;;;;;;;;;;;;;;5067798;28;20005;-78
2022/02/22 06:56:40;;;;;;;;;;;;;;;;;;5063275;28;19946;-80
2022/02/22 06:59:12;;;;;;;;;;;;;;;;;;5063767;28;20355;-79
2022/02/22 07:01:38;;;;;;;;;;;;;;;;;;5066003;28;19985;-80
2022/02/22 07:04:04;;;;;;;;;;;;;;;;;;5065662;28;20017;-77
2022/02/22 07:06:30;;;;;;;;;;;;;;;;;;5063383;28;20413;-77
2022/02/22 07:08:57;;;;;;;;;;;;;;;;;;5062326;28;19956;-81
2022/02/22 07:11:24;;;;;;;;;;;;;;;;;;5064755;28;19963;-81
2022/02/22 07:13:50;;;;;;;;;;;;;;;;;;5063180;28;19931;-83
2022/02/22 07:16:16;;;;;;;;;;;;;;;;;;5068312;28;19986;-83
2022/02/22 07:18:43;;;;;;;;;;;;;;;;;;5064006;28;20380;-82
2022/02/22 07:21:09;;;;;;;;;;;;;;;;;;5065517;28;19967;-84
2022/02/22 07:23:35;;;;;;;;;;;;;;;;;;5064853;28;19962;-79
2022/02/22 07:26:01;;;;;;;;;;;;;;;;;;5062661;28;20396;-79
2022/02/22 07:28:27;;;;;;;;;;;;;;;;;;5065996;28;19962;-80
2022/02/22 07:30:54;;;;;;;;;;;;;;;;;;5064183;28;20555;-80
2022/02/22 07:33:20;;;;;;;;;;;;;;;;;;5066568;28;20047;-83
2022/02/22 07:35:46;;;;;;;;;;;;;;;;;;5063263;28;19964;-83
2022/02/22 07:38:12;;;;;;;;;;;;;;;;;;5064312;28;20009;-82
2022/02/22 07:40:39;;;;;;;;;;;;;;;;;;5061795;28;19975;-83
2022/02/22 07:43:05;;;;;;;;;;;;;;;;;;5062343;28;19967;-82
2022/02/22 07:45:31;;;;;;;;;;;;;;;;;;5063470;28;19964;-81
2022/02/22 07:47:57;;;;;;;;;;;;;;;;;;5065688;28;19955;-84
2022/02/22 07:50:24;;;;;;;;;;;;;;;;;;5064851;28;19952;-86
2022/02/22 07:52:50;;;;;;;;;;;;;;;;;;5061832;28;19967;-82
2022/02/22 07:55:16;;;;;;;;;;;;;;;;;;5067645;28;19967;-85
2022/02/22 07:57:42;;;;;;;;;;;;;;;;;;5070632;28;19956;-83
2022/02/22 08:00:08;;;;;;;;;;;;;;;;;;5064928;28;19952;-84
2022/02/22 08:02:35;;;;;;;;;;;;;;;;;;5063312;28;19950;-84
2022/02/22 08:05:01;;;;;;;;;;;;;;;;;;5068650;28;20403;-82
2022/02/22 08:07:27;;;;;;;;;;;;;;;;;;5066265;28;19956;-84
2022/02/22 08:09:53;;;;;;;;;;;;;;;;;;5068149;28;19944;-83
2022/02/22 08:12:20;;;;;;;;;;;;;;;;;;5062494;28;19991;-86
2022/02/22 08:14:46;;;;;;;;;;;;;;;;;;5067328;28;19960;-84
2022/02/22 08:17:12;;;;;;;;;;;;;;;;;;5065549;28;20654;-83
2022/02/22 08:19:38;;;;;;;;;;;;;;;;;;5063761;28;19959;-85
2022/02/22 08:22:04;;;;;;;;;;;;;;;;;;5064719;28;19948;-84
2022/02/22 08:24:30;;;;;;;;;;;;;;;;;;5066849;28;20349;-83
2022/02/22 08:26:57;;;;;;;;;;;;;;;;;;5066435;28;19960;-84
2022/02/22 08:29:23;;;;;;;;;;;;;;;;;;5068392;28;19920;-83
2022/02/22 08:31:50;;;;;;;;;;;;;;;;;;5065062;28;19986;-82
2022/02/22 08:34:17;;;;;;;;;;;;;;;;;;5067398;28;19951;-83
2022/02/22 08:36:43;;;;;;;;;;;;;;;;;;5067348;28;19955;-84
2022/02/22 08:39:09;;;;;;;;;;;;;;;;;;5067969;28;20017;-84
2022/02/22 08:41:35;;;;;;;;;;;;;;;;;;5066794;28;19948;-84
2022/02/22 08:44:02;;;;;;;;;;;;;;;;;;5066579;28;19966;-84
2022/02/22 08:46:28;;;;;;;;;;;;;;;;;;5067752;28;19963;-84
2022/02/22 08:48:54;;;;;;;;;;;;;;;;;;5069266;28;20001;-81
2022/02/22 08:51:21;;;;;;;;;;;;;;;;;;5072910;28;19966;-83
2022/02/22 08:53:47;;;;;;;;;;;;;;;;;;5069315;28;20345;-85
2022/02/22 08:56:13;;;;;;;;;;;;;;;;;;5067234;28;19959;-84
2022/02/22 08:58:39;;;;;;;;;;;;;;;;;;5061235;28;20371;-84
2022/02/22 09:01:05;;;;;;;;;;;;;;;;;;5064838;28;20590;-84
2022/02/22 09:03:32;;;;;;;;;;;;;;;;;;5064423;28;19955;-84
2022/02/22 09:05:59;;;;;;;;;;;;;;;;;;5067366;28;19956;-81
2022/02/22 09:08:25;;;;;;;;;;;;;;;;;;5062170;28;19920;-82
2022/02/22 09:10:51;;;;;;;;;;;;;;;;;;5066897;28;19951;-82
2022/02/22 09:13:17;;;;;;;;;;;;;;;;;;5066216;28;19987;-81
2022/02/22 09:15:44;;;;;;;;;;;;;;;;;;5056744;28;20018;-83
2022/02/22 09:18:10;;;;;;;;;;;;;;;;;;5061244;28;20340;-82
2022/02/22 09:20:36;;;;;;;;;;;;;;;;;;5064346;28;19974;-81
2022/02/22 09:23:02;;;;;;;;;;;;;;;;;;5061530;28;19944;-81
2022/02/22 09:25:32;;;;;;;;;;;;;;;;;;5065812;28;19948;-81
2022/02/22 09:27:58;;;;;;;;;;;;;;;;;;5061152;28;20418;-81
2022/02/22 09:30:25;;;;;;;;;;;;;;;;;;5066568;28;19959;-81
2022/02/22 09:32:51;;;;;;;;;;;;;;;;;;5068671;28;20005;-81
2022/02/22 09:35:17;;;;;;;;;;;;;;;;;;5068993;28;20039;-81
2022/02/22 09:37:43;;;;;;;;;;;;;;;;;;5065681;28;19952;-83
2022/02/22 09:40:09;;;;;;;;;;;;;;;;;;5067538;28;19963;-82
2022/02/22 09:42:36;;;;;;;;;;;;;;;;;;5067305;28;20695;-82
2022/02/22 09:45:05;;;;;;;;;;;;;;;;;;5064572;28;19960;-83
2022/02/22 09:47:31;;;;;;;;;;;;;;;;;;5067043;28;19952;-83
2022/02/22 09:49:57;;;;;;;;;;;;;;;;;;5068384;28;19925;-81
2022/02/22 09:52:23;;;;;;;;;;;;;;;;;;5075667;28;19955;-80
2022/02/22 09:54:49;;;;;;;;;;;;;;;;;;5071067;28;19931;-81
2022/02/22 09:57:15;;;;;;;;;;;;;;;;;;5069078;28;20411;-81
2022/02/22 09:59:42;;;;;;;;;;;;;;;;;;5070298;28;19923;-82
2022/02/22 10:02:08;;;;;;;;;;;;;;;;;;5069404;28;20352;-82
2022/02/22 10:04:34;;;;;;;;;;;;;;;;;;5074492;28;19916;-81
2022/02/22 10:07:01;;;;;;;;;;;;;;;;;;5070874;28;19958;-81
2022/02/22 10:09:28;;;;;;;;;;;;;;;;;;5064212;28;19913;-82
2022/02/22 10:11:54;;;;;;;;;;;;;;;;;;5072976;28;19929;-81
2022/02/22 10:14:20;;;;;;;;;;;;;;;;;;5073187;28;19928;-83
2022/02/22 10:16:46;;;;;;;;;;;;;;;;;;5071907;28;19955;-82
2022/02/22 10:19:12;;;;;;;;;;;;;;;;;;5068692;28;20404;-82
2022/02/22 10:21:38;;;;;;;;;;;;;;;;;;5065084;28;19944;-82
2022/02/22 10:24:05;;;;;;;;;;;;;;;;;;5068256;28;19959;-81
2022/02/22 10:26:31;;;;;;;;;;;;;;;;;;5070949;28;20008;-85
2022/02/22 10:28:57;;;;;;;;;;;;;;;;;;5067958;28;19963;-81
2022/02/22 10:31:23;;;;;;;;;;;;;;;;;;5061908;28;20051;-81
2022/02/22 10:33:49;;;;;;;;;;;;;;;;;;5075587;28;19920;-83
2022/02/22 10:36:16;;;;;;;;;;;;;;;;;;5068132;28;21712;-82
2022/02/22 10:38:42;;;;;;;;;;;;;;;;;;5070203;28;19971;-81
2022/02/22 10:41:15;;;;;;;;;;;;;;;;;;5070700;28;19962;-83
2022/02/22 10:43:41;;;;;;;;;;;;;;;;;;5075196;28;19960;-81
2022/02/22 10:46:07;;;;;;;;;;;;;;;;;;5068591;28;20364;-82
2022/02/22 10:48:33;;;;;;;;;;;;;;;;;;5070343;28;19916;-83
2022/02/22 10:50:59;;;;;;;;;;;;;;;;;;5067389;28;19948;-82
2022/02/22 10:53:26;;;;;;;;;;;;;;;;;;5057908;28;19974;-83
2022/02/22 10:55:52;;;;;;;;;;;;;;;;;;5070790;28;19961;-82
2022/02/22 10:58:19;;;;;;;;;;;;;;;;;;5069889;28;19959;-82
2022/02/22 11:00:45;;;;;;;;;;;;;;;;;;5069500;28;19963;-85
2022/02/22 11:03:11;;;;;;;;;;;;;;;;;;5068379;28;20391;-83
2022/02/22 11:05:37;;;;;;;;;;;;;;;;;;5068432;28;19952;-82
2022/02/22 11:08:03;;;;;;;;;;;;;;;;;;5064687;28;19966;-83
2022/02/22 11:10:30;;;;;;;;;;;;;;;;;;5069144;28;20411;-84
2022/02/22 11:12:59;;;;;;;;;;;;;;;;;;5072207;28;19963;-82
2022/02/22 11:15:26;;;;;;;;;;;;;;;;;;5067912;28;19954;-84
2022/02/22 11:17:54;;;;;;;;;;;;;;;;;;5066513;28;19971;-84
2022/02/22 11:20:21;;;;;;;;;;;;;;;;;;5069401;28;19948;-83
2022/02/22 11:22:47;;;;;;;;;;;;;;;;;;5066496;28;20047;-83
2022/02/22 11:25:13;;;;;;;;;;;;;;;;;;5062550;28;19963;-82
2022/02/22 11:27:42;;;;;;;;;;;;;;;;;;5066206;28;20342;-82
2022/02/22 11:30:08;;;;;;;;;;;;;;;;;;5064912;28;19952;-82
2022/02/22 11:32:34;;;;;;;;;;;;;;;;;;5067577;28;20414;-82
2022/02/22 11:35:00;;;;;;;;;;;;;;;;;;5066474;28;20085;-82
2022/02/22 11:37:26;;;;;;;;;;;;;;;;;;5065066;28;19957;-82
2022/02/22 11:39:55;;;;;;;;;;;;;;;;;;5064916;28;19944;-85
2022/02/22 11:42:21;;;;;;;;;;;;;;;;;;5062649;28;19974;-83
2022/02/22 11:44:47;;;;;;;;;;;;;;;;;;5066811;28;20013;-83
2022/02/22 11:47:13;;;;;;;;;;;;;;;;;;5066936;28;19967;-82
2022/02/22 11:49:40;;;;;;;;;;;;;;;;;;5068096;28;20388;-82
2022/02/22 11:52:08;;;;;;;;;;;;;;;;;;5066009;28;19971;-83
2022/02/22 11:54:34;;;;;;;;;;;;;;;;;;5068247;28;19951;-83
2022/02/22 11:57:01;;;;;;;;;;;;;;;;;;5068713;28;20457;-81
2022/02/22 11:59:30;;;;;;;;;;;;;;;;;;5066115;28;20001;-81
2022/02/22 12:01:56;;;;;;;;;;;;;;;;;;5068586;28;19955;-81
2022/02/22 12:04:22;;;;;;;;;;;;;;;;;;5068844;28;19973;-80
2022/02/22 12:06:49;;;;;;;;;;;;;;;;;;5069815;28;19952;-80
2022/02/22 12:09:15;;;;;;;;;;;;;;;;;;5072711;28;21137;-79
2022/02/22 12:11:41;;;;;;;;;;;;;;;;;;5066988;28;19960;-81
2022/02/22 12:14:08;;;;;;;;;;;;;;;;;;5067976;28;20446;-80
2022/02/22 12:16:34;;;;;;;;;;;;;;;;;;5067862;28;19951;-76
2022/02/22 12:19:00;;;;;;;;;;;;;;;;;;5064340;28;19968;-79
2022/02/22 12:21:26;;;;;;;;;;;;;;;;;;5066374;28;19979;-80
2022/02/22 12:23:52;;;;;;;;;;;;;;;;;;5063381;28;19986;-79
2022/02/22 12:26:20;;;;;;;;;;;;;;;;;;5067646;28;19955;-80
2022/02/22 12:28:46;;;;;;;;;;;;;;;;;;5066240;28;20013;-80
2022/02/22 12:31:13;;;;;;;;;;;;;;;;;;5064821;28;19956;-80
2022/02/22 12:33:40;;;;;;;;;;;;;;;;;;5067792;28;19963;-79
2022/02/22 12:36:06;;;;;;;;;;;;;;;;;;5066810;28;20399;-80
2022/02/22 12:38:32;;;;;;;;;;;;;;;;;;5066741;28;19924;-79
2022/02/22 12:40:59;;;;;;;;;;;;;;;;;;5065425;28;20013;-79
2022/02/22 12:43:26;;;;;;;;;;;;;;;;;;5067637;28;20020;-79
2022/02/22 12:45:53;;;;;;;;;;;;;;;;;;5069827;28;19920;-79
2022/02/22 12:48:19;;;;;;;;;;;;;;;;;;5065291;28;20731;-79
2022/02/22 12:50:46;;;;;;;;;;;;;;;;;;5067628;28;19956;-79
2022/02/22 12:53:12;;;;;;;;;;;;;;;;;;5065640;28;20349;-80
2022/02/22 12:55:38;;;;;;;;;;;;;;;;;;5072542;28;19956;-78
2022/02/22 12:58:04;;;;;;;;;;;;;;;;;;5070796;28;19951;-81
2022/02/22 13:00:30;;;;;;;;;;;;;;;;;;5072646;28;19960;-79
2022/02/22 13:02:56;;;;;;;;;;;;;;;;;;5055573;28;20038;-81
2022/02/22 13:05:23;;;;;;;;;;;;;;;;;;5062552;28;19924;-80
2022/02/22 13:07:49;;;;;;;;;;;;;;;;;;5063772;28;19985;-80
2022/02/22 13:10:17;;;;;;;;;;;;;;;;;;5063978;28;20898;-80
2022/02/22 13:12:44;;;;;;;;;;;;;;;;;;5066420;28;19967;-81
2022/02/22 13:15:15;;;;;;;;;;;;;;;;;;5065529;28;19955;-75
2022/02/22 13:17:41;;;;;;;;;;;;;;;;;;5068536;28;19963;-77
2022/02/22 13:20:07;;;;;;;;;;;;;;;;;;5056639;28;19948;-77
2022/02/22 13:22:35;;;;;;;;;;;;;;;;;;5068207;28;19959;-75
2022/02/22 13:25:03;;;;;;;;;;;;;;;;;;5079886;28;20396;-80
2022/02/22 13:27:31;;;;;;;;;;;;;;;;;;5060408;28;19956;-76
2022/02/22 13:29:57;;;;;;;;;;;;;;;;;;5065925;28;19951;-77
2022/02/22 13:32:23;;;;;;;;;;;;;;;;;;5071717;28;19955;-82
2022/02/22 13:34:49;;;;;;;;;;;;;;;;;;5069650;28;19920;-77
2022/02/22 13:37:15;;;;;;;;;;;;;;;;;;5064265;28;19985;-78
2022/02/22 13:39:42;;;;;;;;;;;;;;;;;;5066705;28;20005;-76
2022/02/22 13:42:08;;;;;;;;;;;;;;;;;;5073073;28;19963;-77
2022/02/22 13:44:34;;;;;;;;;;;;;;;;;;5066361;28;20017;-79
2022/02/22 13:47:00;;;;;;;;;;;;;;;;;;5045820;28;19944;-78
2022/02/22 13:49:26;;;;;;;;;;;;;;;;;;5064179;28;19963;-82
2022/02/22 13:51:53;;;;;;;;;;;;;;;;;;5065598;28;19956;-82
2022/02/22 13:54:19;;;;;;;;;;;;;;;;;;5064820;28;20494;-81
2022/02/22 13:56:45;;;;;;;;;;;;;;;;;;5064733;28;19948;-80
2022/02/22 13:59:11;;;;;;;;;;;;;;;;;;5062768;28;19964;-81
2022/02/22 14:01:37;;;;;;;;;;;;;;;;;;5076194;28;19956;-80
2022/02/22 14:04:04;;;;;;;;;;;;;;;;;;5062210;28;19960;-80
2022/02/22 14:06:30;;;;;;;;;;;;;;;;;;5066527;28;19963;-81
2022/02/22 14:08:56;;;;;;;;;;;;;;;;;;5066858;28;19967;-78
2022/02/22 14:11:22;;;;;;;;;;;;;;;;;;5066793;28;20376;-78
2022/02/22 14:13:48;;;;;;;;;;;;;;;;;;5066166;28;20016;-65
2022/02/22 14:16:18;;;;;;;;;;;;;;;;;;5064886;28;19971;-65
2022/02/22 14:18:45;;;;;;;;;;;;;;;;;;5062222;28;20024;-67
2022/02/22 14:21:11;;;;;;;;;;;;;;;;;;5062194;28;20787;-66
2022/02/22 14:23:37;;;;;;;;;;;;;;;;;;5068288;28;19955;-66
2022/02/22 14:26:03;;;;;;;;;;;;;;;;;;5060818;28;19959;-67
2022/02/22 14:28:29;;;;;;;;;;;;;;;;;;5064540;28;19952;-65
2022/02/22 14:30:55;;;;;;;;;;;;;;;;;;5059900;28;19956;-66
2022/02/22 14:33:22;;;;;;;;;;;;;;;;;;5057430;28;20360;-65
2022/02/22 14:35:48;;;;;;;;;;;;;;;;;;5058470;28;20611;-65
2022/02/22 14:38:14;;;;;;;;;;;;;;;;;;5058075;28;20017;-66
2022/02/22 14:40:41;;;;;;;;;;;;;;;;;;5061229;28;19975;-65
2022/02/22 14:43:07;;;;;;;;;;;;;;;;;;5057702;28;19963;-65
2022/02/22 14:45:33;;;;;;;;;;;;;;;;;;5061336;28;19970;-65
2022/02/22 14:47:59;;;;;;;;;;;;;;;;;;5056105;28;19966;-65
2022/02/22 14:50:25;;;;;;;;;;;;;;;;;;5057101;28;19948;-65
2022/02/22 14:52:52;;;;;;;;;;;;;;;;;;5060561;28;20023;-65
2022/02/22 14:55:18;;;;;;;;;;;;;;;;;;5060006;28;19967;-65
2022/02/22 14:57:44;;;;;;;;;;;;;;;;;;5056549;28;19992;-65
2022/02/22 15:00:10;;;;;;;;;;;;;;;;;;5056018;28;19947;-65
2022/02/22 15:02:36;;;;;;;;;;;;;;;;;;5064503;28;20405;-65
2022/02/22 15:05:03;;;;;;;;;;;;;;;;;;5066204;28;19955;-65
2022/02/22 15:07:29;;;;;;;;;;;;;;;;;;5065837;28;19944;-65
2022/02/22 15:09:55;;;;;;;;;;;;;;;;;;5064025;28;19964;-65
2022/02/22 15:12:21;;;;;;;;;;;;;;;;;;5063195;28;19982;-65
2022/02/22 15:14:47;;;;;;;;;;;;;;;;;;5069719;28;20406;-64
2022/02/22 15:17:14;;;;;;;;;;;;;;;;;;5065541;28;19954;-64
2022/02/22 15:19:40;;;;;;;;;;;;;;;;;;5064981;28;19960;-65
2022/02/22 15:22:06;;;;;;;;;;;;;;;;;;5066216;28;20094;-64
2022/02/22 15:24:32;;;;;;;;;;;;;;;;;;5066842;28;19962;-65
2022/02/22 15:26:58;;;;;;;;;;;;;;;;;;5066526;28;19948;-65
2022/02/22 15:29:24;;;;;;;;;;;;;;;;;;5064649;28;19959;-65
2022/02/22 15:31:51;;;;;;;;;;;;;;;;;;5066144;28;19956;-68
2022/02/22 15:34:18;;;;;;;;;;;;;;;;;;5066794;28;19955;-65
2022/02/22 15:36:45;;;;;;;;;;;;;;;;;;5068078;28;19952;-65
2022/02/22 15:39:11;;;;;;;;;;;;;;;;;;5064779;28;20832;-66
2022/02/22 15:41:37;;;;;;;;;;;;;;;;;;5078568;28;19967;-64
2022/02/22 15:44:03;;;;;;;;;;;;;;;;;;5068781;28;19970;-65
2022/02/22 15:46:29;;;;;;;;;;;;;;;;;;5065395;28;19955;-64
2022/02/22 15:48:55;;;;;;;;;;;;;;;;;;5062963;28;19949;-65
2022/02/22 15:51:22;;;;;;;;;;;;;;;;;;5069448;28;19972;-65
2022/02/22 15:53:49;;;;;;;;;;;;;;;;;;5058782;28;19960;-64
2022/02/22 15:56:15;;;;;;;;;;;;;;;;;;5061510;28;20396;-64
2022/02/22 15:58:41;;;;;;;;;;;;;;;;;;5066307;28;19970;-64
2022/02/22 16:01:08;;;;;;;;;;;;;;;;;;5058961;28;20438;-64
2022/02/22 16:03:34;;;;;;;;;;;;;;;;;;5068128;28;19960;-64
2022/02/22 16:06:00;;;;;;;;;;;;;;;;;;5064998;28;19956;-64
2022/02/22 16:08:27;;;;;;;;;;;;;;;;;;5062829;28;19928;-64
2022/02/22 16:10:53;;;;;;;;;;;;;;;;;;5059999;28;20359;-65
2022/02/22 16:13:20;;;;;;;;;;;;;;;;;;5058212;28;19967;-63
2022/02/22 16:15:46;;;;;;;;;;;;;;;;;;5066468;28;19959;-65
2022/02/22 16:18:13;;;;;;;;;;;;;;;;;;5063304;28;19952;-64
2022/02/22 16:20:39;;;;;;;;;;;;;;;;;;5070231;28;19963;-64
2022/02/22 16:23:05;;;;;;;;;;;;;;;;;;5066334;28;20475;-65
2022/02/22 16:25:31;;;;;;;;;;;;;;;;;;5064554;28;19963;-64
2022/02/22 16:27:58;;;;;;;;;;;;;;;;;;5062389;28;19963;-66
2022/02/22 16:30:26;;;;;;;;;;;;;;;;;;5060198;28;19957;-65
2022/02/22 16:32:53;;;;;;;;;;;;;;;;;;5063679;28;19964;-65
2022/02/22 16:35:19;;;;;;;;;;;;;;;;;;5065783;28;19956;-65
2022/02/22 16:37:45;;;;;;;;;;;;;;;;;;5067782;28;20441;-66
2022/02/22 16:40:11;;;;;;;;;;;;;;;;;;5048121;28;20184;-64